createdAt,value
2022-12-23T00:02:57.819Z,101721.38
2022-12-23T00:08:00.869Z,101724.94
2022-12-23T00:13:05.350Z,101710.28
2022-12-23T00:18:08.250Z,101699.03
2022-12-23T00:23:11.087Z,101717.31
2022-12-23T00:28:17.626Z,101718.22
2022-12-23T00:33:21.659Z,101726.06
2022-12-23T00:38:24.681Z,101733.84
2022-12-23T00:43:29.197Z,101724.44
2022-12-23T00:48:32.823Z,101711.41
2022-12-23T00:53:35.704Z,101720.16
2022-12-23T00:58:40.203Z,101723.69
2022-12-23T01:03:43.099Z,101725.31
2022-12-23T01:08:46.002Z,101730.53
2022-12-23T01:13:51.561Z,101718.50
2022-12-23T01:18:54.484Z,101727.25
2022-12-23T01:23:57.400Z,101730.72
2022-12-23T01:29:02.196Z,101740.00
2022-12-23T01:34:05.182Z,101751.50
2022-12-23T01:39:08.122Z,101765.53
2022-12-23T01:44:29.315Z,101775.16
2022-12-23T01:49:33.837Z,101796.88
2022-12-23T01:54:37.721Z,101823.81
2022-12-23T01:59:41.339Z,101822.94
2022-12-23T02:04:47.137Z,101793.41
2022-12-23T02:09:50.002Z,101774.31
2022-12-23T02:15:02.618Z,101771.72
2022-12-23T02:20:19.621Z,101794.34
2022-12-23T02:25:36.870Z,101790.88
2022-12-23T02:30:46.493Z,101838.63
2022-12-23T02:35:55.819Z,101850.78
2022-12-23T02:41:02.749Z,101847.31
2022-12-23T02:46:10.021Z,101845.56
2022-12-23T02:51:14.911Z,101845.59
2022-12-23T02:56:19.571Z,101835.13
2022-12-23T03:01:25.334Z,101827.31
2022-12-23T03:06:30.125Z,101809.97
2022-12-23T03:11:37.325Z,101829.94
2022-12-23T03:16:46.619Z,101850.78
2022-12-23T03:22:00.533Z,101853.38
2022-12-23T03:27:05.875Z,101854.25
2022-12-23T03:32:11.913Z,101844.69
2022-12-23T03:37:16.721Z,101833.41
2022-12-23T03:42:21.853Z,101849.06
2022-12-23T03:47:28.822Z,101834.28
2022-12-23T03:52:33.676Z,101844.69
2022-12-23T03:57:41.251Z,101817.78
2022-12-23T04:02:48.318Z,101827.34
2022-12-23T04:07:53.993Z,101843.81
2022-12-23T04:12:56.946Z,101858.59
2022-12-23T04:18:01.495Z,101838.63
2022-12-23T04:23:04.617Z,101848.19
2022-12-23T04:28:07.584Z,101855.13
2022-12-23T04:33:12.975Z,101849.94
2022-12-23T04:38:15.932Z,101837.75
2022-12-23T04:43:19.307Z,101823.84
2022-12-23T04:48:23.861Z,101846.41
2022-12-23T04:53:26.939Z,101838.56
2022-12-23T04:58:29.816Z,101888.16
2022-12-23T05:03:34.411Z,101891.63
2022-12-23T05:08:37.374Z,101899.44
2022-12-23T05:13:40.230Z,101882.06
2022-12-23T05:18:44.781Z,101887.25
2022-12-23T05:23:47.689Z,101868.16
2022-12-23T05:28:50.622Z,101867.31
2022-12-23T05:33:56.646Z,101870.78
2022-12-23T05:39:01.299Z,101880.31
2022-12-23T05:44:04.252Z,101902.88
2022-12-23T05:49:08.784Z,101902.00
2022-12-23T05:54:11.682Z,101907.19
2022-12-23T05:59:14.520Z,101886.31
2022-12-23T06:04:19.157Z,101881.13
2022-12-23T06:09:22.077Z,101884.63
2022-12-23T06:14:28.772Z,101882.88
2022-12-23T06:19:33.983Z,101875.03
2022-12-23T06:24:36.848Z,101875.91
2022-12-23T06:29:39.745Z,101891.47
2022-12-23T06:34:44.231Z,101876.75
2022-12-23T06:39:47.132Z,101888.88
2022-12-23T06:44:49.996Z,101891.47
2022-12-23T06:49:54.517Z,101900.97
2022-12-23T06:54:59.374Z,101923.41
2022-12-23T07:00:02.260Z,101921.59
2022-12-23T07:05:07.047Z,101920.72
2022-12-23T07:10:10.421Z,101944.97
2022-12-23T07:15:13.261Z,101953.72
2022-12-23T07:20:17.897Z,101973.63
2022-12-23T07:25:20.783Z,101968.50
2022-12-23T07:30:23.943Z,101982.38
2022-12-23T07:35:28.560Z,101973.81
2022-12-23T07:40:31.500Z,101981.56
2022-12-23T07:45:34.396Z,101985.13
2022-12-23T07:50:39.951Z,101964.25
2022-12-23T07:55:43.949Z,101974.66
2022-12-23T08:00:46.808Z,101966.00
2022-12-23T08:05:59.305Z,101964.31
2022-12-23T08:11:03.175Z,101943.50
2022-12-23T08:16:06.815Z,101940.88
2022-12-23T08:21:14.006Z,101937.41
2022-12-23T08:26:17.675Z,101931.38
2022-12-23T08:31:21.544Z,101931.44
2022-12-23T08:36:27.085Z,101923.63
2022-12-23T08:41:30.592Z,101911.47
2022-12-23T08:46:33.663Z,101911.44
2022-12-23T08:51:38.736Z,101919.25
2022-12-23T08:56:42.310Z,101906.19
2022-12-23T09:01:45.217Z,101897.53
2022-12-23T09:06:49.791Z,101898.34
2022-12-23T09:11:52.627Z,101888.81
2022-12-23T09:16:55.493Z,101910.53
2022-12-23T09:21:59.968Z,101904.50
2022-12-23T09:27:03.033Z,101898.44
2022-12-23T09:32:06.105Z,101914.03
2022-12-23T09:37:11.647Z,101910.53
2022-12-23T09:42:26.171Z,101904.44
2022-12-23T09:47:30.420Z,101923.44
2022-12-23T09:52:38.523Z,101903.44
2022-12-23T09:57:45.240Z,101890.47
2022-12-23T10:02:56.734Z,101929.50
2022-12-23T10:08:04.632Z,101933.88
2022-12-23T10:13:12.291Z,101925.19
2022-12-23T10:18:19.927Z,101934.75
2022-12-23T10:23:27.942Z,101944.28
2022-12-23T10:28:30.809Z,101956.41
2022-12-23T10:33:38.148Z,101946.00
2022-12-23T10:38:48.593Z,101953.00
2022-12-23T10:44:13.874Z,101962.50
2022-12-23T10:49:20.767Z,101948.59
2022-12-23T10:54:28.094Z,101951.13
2022-12-23T10:59:32.421Z,101927.78
2022-12-23T11:04:36.337Z,101932.91
2022-12-23T11:09:43.325Z,101926.00
2022-12-23T11:14:52.228Z,101945.06
2022-12-23T11:20:07.637Z,101963.34
2022-12-23T11:25:26.619Z,101964.28
2022-12-23T11:30:29.799Z,101963.38
2022-12-23T11:35:34.055Z,101955.53
2022-12-23T11:40:38.945Z,101961.66
2022-12-23T11:45:41.835Z,101963.34
2022-12-23T11:50:44.737Z,101976.38
2022-12-23T11:55:57.618Z,101951.25
2022-12-23T12:01:00.990Z,101956.44
2022-12-23T12:06:04.701Z,101953.03
2022-12-23T12:11:14.097Z,101960.78
2022-12-23T12:16:22.766Z,101966.84
2022-12-23T12:21:26.904Z,101980.72
2022-12-23T12:26:32.461Z,101967.72
2022-12-23T12:31:38.561Z,101959.84
2022-12-23T12:36:44.930Z,101976.34
2022-12-23T12:41:50.961Z,101973.75
2022-12-23T12:46:58.026Z,101973.72
2022-12-23T12:52:05.626Z,101974.69
2022-12-23T12:57:14.741Z,101985.97
2022-12-23T13:02:28.520Z,101992.91
2022-12-23T13:07:36.311Z,102003.28
2022-12-23T13:12:46.877Z,101993.75
2022-12-23T13:18:01.955Z,102015.41
2022-12-23T13:23:41.686Z,102015.34
2022-12-23T13:28:44.625Z,102010.16
2022-12-23T13:33:51.059Z,102017.13
2022-12-23T13:39:02.797Z,102018.84
2022-12-23T13:44:09.496Z,102018.84
2022-12-23T13:49:17.789Z,102028.38
2022-12-23T13:54:28.590Z,102029.25
2022-12-23T13:59:41.336Z,102025.78
2022-12-23T14:04:58.757Z,102032.75
2022-12-23T14:10:11.909Z,102019.78
2022-12-23T14:15:27.197Z,102025.84
2022-12-23T14:20:37.463Z,102029.25
2022-12-23T14:25:53.268Z,102034.44
2022-12-23T14:30:58.619Z,102030.97
2022-12-23T14:36:15.089Z,102033.63
2022-12-23T14:41:38.543Z,102041.47
2022-12-23T14:46:55.935Z,102035.41
2022-12-23T14:52:21.949Z,102050.13
2022-12-23T14:57:28.366Z,102053.59
2022-12-23T15:02:33.251Z,102063.13
2022-12-23T15:07:38.764Z,102070.91
2022-12-23T15:12:42.834Z,102076.06
2022-12-23T15:17:45.743Z,102083.91
2022-12-23T15:22:50.710Z,102090.00
2022-12-23T15:28:00.964Z,102088.28
2022-12-23T15:33:15.990Z,102098.72
2022-12-23T15:38:31.408Z,102116.09
2022-12-23T15:43:40.967Z,102127.41
2022-12-23T15:48:44.510Z,102135.25
2022-12-23T15:53:50.044Z,102143.97
2022-12-23T15:58:53.470Z,102157.06
2022-12-23T16:03:57.612Z,102166.66
2022-12-23T16:09:03.031Z,102161.47
2022-12-23T16:14:20.300Z,102164.94
2022-12-23T16:19:41.788Z,102180.63
2022-12-23T16:24:47.586Z,102177.25
2022-12-23T16:29:50.467Z,102173.81
2022-12-23T16:34:53.299Z,102181.63
2022-12-23T16:39:58.165Z,102190.38
2022-12-23T16:45:01.300Z,102178.25
2022-12-23T16:50:04.379Z,102172.19
2022-12-23T16:55:17.717Z,102179.97
2022-12-23T17:00:20.802Z,102178.59
2022-12-23T17:05:24.159Z,102193.41
2022-12-23T17:10:28.876Z,102205.56
2022-12-23T17:15:32.010Z,102212.50
2022-12-23T17:20:34.911Z,102216.81
2022-12-23T17:25:39.422Z,102224.66
2022-12-23T17:30:42.310Z,102225.53
2022-12-23T17:35:45.212Z,102225.56
2022-12-23T17:40:50.428Z,102236.88
2022-12-23T17:45:53.397Z,102243.00
2022-12-23T17:50:56.306Z,102234.31
2022-12-23T17:56:00.813Z,102234.31
2022-12-23T18:01:03.759Z,102229.97
2022-12-23T18:06:09.089Z,102214.28
2022-12-23T18:11:17.960Z,102227.31
2022-12-23T18:16:20.911Z,102214.28
2022-12-23T18:21:25.512Z,102204.69
2022-12-23T18:26:30.776Z,102210.78
2022-12-23T18:31:33.796Z,102202.94
2022-12-23T18:36:36.777Z,102208.19
2022-12-23T18:41:41.374Z,102215.13
2022-12-23T18:46:48.325Z,102222.06
2022-12-23T18:51:51.317Z,102216.88
2022-12-23T18:56:55.905Z,102228.16
2022-12-23T19:01:59.290Z,102246.44
2022-12-23T19:07:02.275Z,102249.84
2022-12-23T19:12:07.083Z,102244.63
2022-12-23T19:17:09.981Z,102232.34
2022-12-23T19:22:12.850Z,102242.66
2022-12-23T19:27:17.347Z,102231.25
2022-12-23T19:32:20.247Z,102219.84
2022-12-23T19:37:23.163Z,102218.03
2022-12-23T19:42:27.660Z,102208.38
2022-12-23T19:47:30.547Z,102184.63
2022-12-23T19:52:33.395Z,102168.84
2022-12-23T19:57:37.927Z,102167.66
2022-12-23T20:02:40.803Z,102161.44
2022-12-23T20:07:44.654Z,102166.56
2022-12-23T20:12:49.183Z,102154.47
2022-12-23T20:17:52.065Z,102157.88
2022-12-23T20:22:54.949Z,102170.06
2022-12-23T20:27:59.467Z,102181.28
2022-12-23T20:33:02.356Z,102188.38
2022-12-23T20:38:05.248Z,102184.88
2022-12-23T20:43:15.037Z,102165.50
2022-12-23T20:48:18.459Z,102151.19
2022-12-23T20:53:21.346Z,102168.34
2022-12-23T20:58:25.859Z,102156.41
2022-12-23T21:03:28.767Z,102147.78
2022-12-23T21:08:31.715Z,102135.47
2022-12-23T21:13:36.646Z,102139.31
2022-12-23T21:18:40.786Z,102150.84
2022-12-23T21:23:43.674Z,102132.50
2022-12-23T21:28:48.912Z,102129.78
2022-12-23T21:33:52.169Z,102128.13
2022-12-23T21:38:55.179Z,102127.94
2022-12-23T21:44:00.193Z,102129.84
2022-12-23T21:49:03.348Z,102127.16
2022-12-23T21:54:06.230Z,102132.59
2022-12-23T21:59:12.218Z,102129.88
2022-12-23T22:04:15.094Z,102127.19
2022-12-23T22:09:19.064Z,102097.34
2022-12-23T22:14:23.571Z,102084.94
2022-12-23T22:19:26.459Z,102090.91
2022-12-23T22:24:29.363Z,102076.75
2022-12-23T22:29:34.937Z,102070.81
2022-12-23T22:34:37.822Z,102066.47
2022-12-23T22:39:40.754Z,102061.84
2022-12-23T22:44:45.270Z,102051.25
2022-12-23T22:49:48.120Z,102070.41
2022-12-23T22:54:51.496Z,102086.19
2022-12-23T22:59:56.028Z,102071.41
2022-12-23T23:04:58.915Z,102081.31
2022-12-23T23:10:01.891Z,102099.81
2022-12-23T23:15:09.963Z,102090.09
2022-12-23T23:20:13.020Z,102079.56
2022-12-23T23:25:15.939Z,102090.03
2022-12-23T23:30:20.610Z,102089.22
2022-12-23T23:35:23.499Z,102097.84
2022-12-23T23:40:26.576Z,102102.44
2022-12-23T23:45:31.166Z,102106.06
2022-12-23T23:50:34.301Z,102116.63
2022-12-23T23:55:37.148Z,102128.22
